createdAt,value
2022-12-31T00:00:29.451Z,98669.97
2022-12-31T00:02:30.942Z,98675.59
2022-12-31T00:04:32.480Z,98674.78
2022-12-31T00:06:35.443Z,98668.66
2022-12-31T00:08:36.810Z,98676.91
2022-12-31T00:10:41.448Z,98676.41
2022-12-31T00:12:43.051Z,98665.75
2022-12-31T00:14:44.459Z,98667.38
2022-12-31T00:16:45.883Z,98669.22
2022-12-31T00:18:50.228Z,98669.22
2022-12-31T00:20:51.596Z,98675.84
2022-12-31T00:22:58.381Z,98678.72
2022-12-31T00:24:59.713Z,98675.84
2022-12-31T00:27:01.296Z,98671.63
2022-12-31T00:29:04.420Z,98668.97
2022-12-31T00:31:17.580Z,98676.91
2022-12-31T00:33:19.062Z,98689.13
2022-12-31T00:35:20.432Z,98691.50
2022-12-31T00:37:21.770Z,98684.59
2022-12-31T00:39:23.231Z,98688.84
2022-12-31T00:41:25.390Z,98692.25
2022-12-31T00:43:26.780Z,98689.59
2022-12-31T00:45:28.180Z,98691.44
2022-12-31T00:47:29.735Z,98687.72
2022-12-31T00:49:31.126Z,98689.56
2022-12-31T00:51:33.393Z,98685.59
2022-12-31T00:53:35.213Z,98691.69
2022-12-31T00:55:36.588Z,98692.97
2022-12-31T00:57:37.963Z,98687.69
2022-12-31T00:59:39.369Z,98685.03
2022-12-31T01:01:42.087Z,98688.75
2022-12-31T01:03:44.148Z,98686.63
2022-12-31T01:05:45.545Z,98682.91
2022-12-31T01:07:46.973Z,98674.44
2022-12-31T01:09:48.377Z,98669.13
2022-12-31T01:11:51.382Z,98664.34
2022-12-31T01:13:54.196Z,98657.72
2022-12-31T01:15:55.657Z,98654.28
2022-12-31T01:17:57.052Z,98651.34
2022-12-31T01:19:58.418Z,98653.47
2022-12-31T01:21:59.813Z,98646.31
2022-12-31T01:24:01.221Z,98634.94
2022-12-31T01:26:05.204Z,98638.34
2022-12-31T01:28:06.693Z,98640.75
2022-12-31T01:30:08.803Z,98636.75
2022-12-31T01:32:10.189Z,98638.09
2022-12-31T01:34:11.621Z,98630.97
2022-12-31T01:36:26.264Z,98619.31
2022-12-31T01:38:27.931Z,98625.97
2022-12-31T01:40:29.402Z,98631.25
2022-12-31T01:42:30.816Z,98632.84
2022-12-31T01:44:32.141Z,98624.66
2022-12-31T01:46:47.014Z,98622.00
2022-12-31T01:48:52.724Z,98622.28
2022-12-31T01:50:54.839Z,98611.41
2022-12-31T01:53:00.571Z,98618.59
2022-12-31T01:55:14.057Z,98614.09
2022-12-31T01:57:16.434Z,98618.59
2022-12-31T01:59:19.501Z,98607.72
2022-12-31T02:01:30.862Z,98601.91
2022-12-31T02:03:32.467Z,98607.22
2022-12-31T02:05:46.272Z,98602.44
2022-12-31T02:07:48.539Z,98602.47
2022-12-31T02:09:50.533Z,98611.50
2022-12-31T02:11:51.997Z,98607.25
2022-12-31T02:13:58.519Z,98608.56
2022-12-31T02:16:16.283Z,98600.63
2022-12-31T02:18:17.645Z,98583.66
2022-12-31T02:20:40.438Z,98601.44
2022-12-31T02:23:00.102Z,98597.22
2022-12-31T02:25:10.510Z,98595.09
2022-12-31T02:27:32.802Z,98599.63
2022-12-31T02:30:01.580Z,98612.09
2022-12-31T02:32:24.672Z,98624.56
2022-12-31T02:34:52.410Z,98619.56
2022-12-31T02:36:56.964Z,98606.56
2022-12-31T02:38:59.368Z,98617.44
2022-12-31T02:41:01.230Z,98616.66
2022-12-31T02:43:03.042Z,98601.50
2022-12-31T02:45:04.825Z,98599.69
2022-12-31T02:47:16.541Z,98602.88
2022-12-31T02:49:49.238Z,98601.56
2022-12-31T02:52:30.497Z,98594.13
2022-12-31T02:55:02.776Z,98602.88
2022-12-31T02:57:19.021Z,98595.72
2022-12-31T02:59:53.238Z,98593.06
2022-12-31T03:02:15.671Z,98599.69
2022-12-31T03:04:33.621Z,98605.53
2022-12-31T03:06:35.232Z,98611.63
2022-12-31T03:08:56.605Z,98616.44
2022-12-31T03:10:58.037Z,98616.16
2022-12-31T03:13:27.207Z,98610.81
2022-12-31T03:15:31.569Z,98624.88
2022-12-31T03:17:34.454Z,98624.09
2022-12-31T03:19:54.163Z,98624.91
2022-12-31T03:22:13.868Z,98624.34
2022-12-31T03:24:33.735Z,98620.13
2022-12-31T03:26:35.743Z,98630.75
2022-12-31T03:28:39.192Z,98625.97
2022-12-31T03:30:43.326Z,98633.13
2022-12-31T03:32:46.513Z,98640.56
2022-12-31T03:34:48.011Z,98641.09
2022-12-31T03:36:49.410Z,98632.91
2022-12-31T03:38:52.795Z,98644.00
2022-12-31T03:40:54.394Z,98643.50
2022-12-31T03:42:56.398Z,98642.16
2022-12-31T03:44:57.768Z,98646.66
2022-12-31T03:46:59.162Z,98645.88
2022-12-31T03:49:00.522Z,98636.84
2022-12-31T03:51:01.884Z,98643.75
2022-12-31T03:53:04.641Z,98640.28
2022-12-31T03:55:07.043Z,98652.00
2022-12-31T03:57:08.510Z,98644.84
2022-12-31T03:59:09.923Z,98649.34
2022-12-31T04:01:11.510Z,98644.03
2022-12-31T04:03:13.040Z,98651.47
2022-12-31T04:05:15.595Z,98657.56
2022-12-31T04:07:17.085Z,98654.94
2022-12-31T04:09:18.443Z,98648.81
2022-12-31T04:11:21.133Z,98653.34
2022-12-31T04:13:22.778Z,98653.59
2022-12-31T04:15:24.147Z,98661.03
2022-12-31T04:17:26.067Z,98654.69
2022-12-31T04:19:27.492Z,98650.69
2022-12-31T04:21:34.849Z,98640.34
2022-12-31T04:23:36.625Z,98643.78
2022-12-31T04:25:38.010Z,98655.47
2022-12-31T04:27:40.857Z,98646.44
2022-12-31T04:29:42.379Z,98640.06
2022-12-31T04:31:43.777Z,98643.00
2022-12-31T04:33:45.255Z,98636.91
2022-12-31T04:35:46.677Z,98637.69
2022-12-31T04:37:48.086Z,98648.03
2022-12-31T04:39:49.509Z,98650.16
2022-12-31T04:41:51.179Z,98650.16
2022-12-31T04:43:57.669Z,98648.56
2022-12-31T04:45:59.064Z,98661.31
2022-12-31T04:48:00.441Z,98673.78
2022-12-31T04:50:01.879Z,98671.13
2022-12-31T04:52:03.336Z,98673.28
2022-12-31T04:54:05.285Z,98675.66
2022-12-31T04:56:07.832Z,98680.16
2022-12-31T04:58:09.265Z,98672.47
2022-12-31T05:00:11.124Z,98652.53
2022-12-31T05:02:12.684Z,98665.28
2022-12-31T05:04:14.322Z,98671.41
2022-12-31T05:06:19.096Z,98673.53
2022-12-31T05:08:21.075Z,98682.00
2022-12-31T05:10:23.339Z,98670.06
2022-12-31T05:12:24.729Z,98681.75
2022-12-31T05:14:26.565Z,98684.41
2022-12-31T05:16:28.050Z,98692.91
2022-12-31T05:18:30.382Z,98679.34
2022-12-31T05:20:31.927Z,98672.44
2022-12-31T05:22:33.364Z,98667.91
2022-12-31T05:24:34.788Z,98670.84
2022-12-31T05:26:36.154Z,98659.16
2022-12-31T05:28:37.534Z,98659.91
2022-12-31T05:30:39.018Z,98668.19
2022-12-31T05:32:40.490Z,98659.66
2022-12-31T05:34:41.900Z,98665.78
2022-12-31T05:36:43.268Z,98659.13
2022-12-31T05:38:44.683Z,98662.59
2022-12-31T05:40:46.087Z,98655.34
2022-12-31T05:42:47.589Z,98660.41
2022-12-31T05:44:49.230Z,98673.72
2022-12-31T05:46:50.609Z,98668.38
2022-12-31T05:48:52.072Z,98662.22
2022-12-31T05:50:53.439Z,98673.91
2022-12-31T05:52:54.861Z,98679.72
2022-12-31T05:54:56.267Z,98688.25
2022-12-31T05:56:57.853Z,98672.28
2022-12-31T05:58:59.247Z,98675.72
2022-12-31T06:01:00.707Z,98697.28
2022-12-31T06:03:02.311Z,98679.97
2022-12-31T06:05:04.284Z,98658.72
2022-12-31T06:07:05.733Z,98684.47
2022-12-31T06:09:07.284Z,98671.13
2022-12-31T06:11:08.707Z,98687.88
2022-12-31T06:13:10.122Z,98684.44
2022-12-31T06:15:11.580Z,98697.97
2022-12-31T06:17:13.151Z,98719.50
2022-12-31T06:19:14.584Z,98729.63
2022-12-31T06:21:16.491Z,98729.09
2022-12-31T06:23:17.916Z,98711.53
2022-12-31T06:25:19.415Z,98726.88
2022-12-31T06:27:20.958Z,98711.69
2022-12-31T06:29:22.324Z,98719.94
2022-12-31T06:31:23.797Z,98726.06
2022-12-31T06:33:25.223Z,98705.56
2022-12-31T06:35:26.585Z,98741.25
2022-12-31T06:37:28.169Z,98726.31
2022-12-31T06:39:29.543Z,98719.63
2022-12-31T06:41:31.604Z,98724.19
2022-12-31T06:43:34.725Z,98730.78
2022-12-31T06:45:36.128Z,98739.00
2022-12-31T06:47:37.551Z,98746.22
2022-12-31T06:49:40.711Z,98752.03
2022-12-31T06:51:42.481Z,98728.03
2022-12-31T06:53:45.721Z,98762.38
2022-12-31T06:55:50.138Z,98742.19
2022-12-31T06:57:52.288Z,98742.38
2022-12-31T06:59:53.882Z,98748.25
2022-12-31T07:01:58.147Z,98747.41
2022-12-31T07:04:44.424Z,98736.03
2022-12-31T07:06:54.519Z,98755.94
2022-12-31T07:09:08.605Z,98765.31
2022-12-31T07:11:28.805Z,98740.75
2022-12-31T07:14:05.885Z,98747.69
2022-12-31T07:16:20.996Z,98764.16
2022-12-31T07:18:50.816Z,98775.41
2022-12-31T07:20:52.539Z,98771.66
2022-12-31T07:22:54.300Z,98778.03
2022-12-31T07:24:55.941Z,98759.16
2022-12-31T07:27:00.254Z,98771.34
2022-12-31T07:29:19.750Z,98760.44
2022-12-31T07:31:34.387Z,98765.78
2022-12-31T07:33:50.489Z,98772.16
2022-12-31T07:35:57.915Z,98766.75
2022-12-31T07:38:12.675Z,98784.03
2022-12-31T07:40:28.645Z,98772.31
2022-12-31T07:42:44.898Z,98772.66
2022-12-31T07:45:01.288Z,98796.31
2022-12-31T07:47:05.196Z,98782.97
2022-12-31T07:49:12.068Z,98783.25
2022-12-31T07:51:13.786Z,98803.75
2022-12-31T07:53:15.417Z,98767.78
2022-12-31T07:55:16.795Z,98784.84
2022-12-31T07:57:20.442Z,98780.06
2022-12-31T07:59:33.799Z,98795.00
2022-12-31T08:01:46.020Z,98795.00
2022-12-31T08:04:02.696Z,98784.09
2022-12-31T08:06:25.596Z,98784.59
2022-12-31T08:08:32.960Z,98789.13
2022-12-31T08:10:59.233Z,98814.16
2022-12-31T08:13:04.179Z,98812.28
2022-12-31T08:15:14.249Z,98825.88
2022-12-31T08:17:17.996Z,98813.09
2022-12-31T08:19:31.483Z,98790.13
2022-12-31T08:21:46.042Z,98813.84
2022-12-31T08:23:54.141Z,98806.38
2022-12-31T08:26:07.584Z,98815.72
2022-12-31T08:28:32.097Z,98825.56
2022-12-31T08:30:56.777Z,98808.97
2022-12-31T08:33:17.341Z,98820.47
2022-12-31T08:35:25.065Z,98845.19
2022-12-31T08:37:37.866Z,98835.31
2022-12-31T08:40:00.825Z,98844.94
2022-12-31T08:42:08.351Z,98852.69
2022-12-31T08:44:34.562Z,98871.84
2022-12-31T08:47:03.362Z,98850.28
2022-12-31T08:49:05.036Z,98847.59
2022-12-31T08:51:12.742Z,98850.72
2022-12-31T08:53:14.363Z,98844.06
2022-12-31T08:55:17.493Z,98852.59
2022-12-31T08:57:40.713Z,98863.22
2022-12-31T09:00:21.276Z,98864.78
2022-12-31T09:02:44.692Z,98862.69
2022-12-31T09:05:04.673Z,98848.81
2022-12-31T09:07:08.007Z,98852.50
2022-12-31T09:09:23.720Z,98845.63
2022-12-31T09:11:47.497Z,98846.16
2022-12-31T09:14:19.385Z,98863.75
2022-12-31T09:16:27.241Z,98871.19
2022-12-31T09:18:33.315Z,98858.41
2022-12-31T09:20:44.330Z,98857.88
2022-12-31T09:22:46.209Z,98856.78
2022-12-31T09:24:48.287Z,98857.84
2022-12-31T09:27:10.401Z,98835.72
2022-12-31T09:29:17.783Z,98847.69
2022-12-31T09:31:36.132Z,98863.94
2022-12-31T09:33:55.508Z,98859.41
2022-12-31T09:36:01.015Z,98879.09
2022-12-31T09:38:16.597Z,98887.41
2022-12-31T09:40:26.831Z,98907.06
2022-12-31T09:43:03.294Z,98931.63
2022-12-31T09:45:40.052Z,98939.63
2022-12-31T09:48:09.363Z,98941.47
2022-12-31T09:50:54.195Z,98932.34
2022-12-31T09:53:26.512Z,98943.81
2022-12-31T09:55:30.977Z,98944.06
2022-12-31T09:57:56.226Z,98963.81
2022-12-31T10:00:11.602Z,98949.66
2022-12-31T10:02:13.087Z,98947.75
2022-12-31T10:04:45.296Z,98981.09
2022-12-31T10:07:10.632Z,98969.66
2022-12-31T10:09:26.966Z,98937.31
2022-12-31T10:11:31.374Z,98965.56
2022-12-31T10:13:53.374Z,98964.50
2022-12-31T10:16:21.244Z,98962.66
2022-12-31T10:18:34.578Z,98958.09
2022-12-31T10:21:16.604Z,98961.84
2022-12-31T10:23:36.192Z,98966.13
2022-12-31T10:25:38.803Z,98969.03
2022-12-31T10:27:54.610Z,98958.03
2022-12-31T10:30:03.497Z,98950.03
2022-12-31T10:32:31.176Z,98983.88
2022-12-31T10:35:10.348Z,98971.09
2022-12-31T10:37:29.862Z,98956.38
2022-12-31T10:39:35.237Z,98949.13
2022-12-31T10:41:52.516Z,98968.84
2022-12-31T10:44:24.932Z,98977.69
2022-12-31T10:46:43.869Z,98978.72
2022-12-31T10:48:57.306Z,98969.66
2022-12-31T10:51:25.677Z,98993.91
2022-12-31T10:53:54.422Z,98984.34
2022-12-31T10:56:34.303Z,98983.75
2022-12-31T10:59:18.973Z,98985.63
2022-12-31T11:01:41.542Z,98978.69
2022-12-31T11:04:13.993Z,98972.56
2022-12-31T11:06:46.560Z,98977.59
2022-12-31T11:09:12.432Z,98979.22
2022-12-31T11:11:16.523Z,98943.13
2022-12-31T11:13:50.240Z,98978.31
2022-12-31T11:16:20.880Z,98977.81
2022-12-31T11:18:47.398Z,98967.41
2022-12-31T11:21:09.986Z,98959.84
2022-12-31T11:23:55.825Z,98957.94
2022-12-31T11:26:24.654Z,98950.03
2022-12-31T11:29:19.514Z,98959.56
2022-12-31T11:31:39.251Z,98961.16
2022-12-31T11:34:13.850Z,98976.34
2022-12-31T11:36:39.631Z,98971.63
2022-12-31T11:38:50.847Z,98970.94
2022-12-31T11:40:59.845Z,98972.50
2022-12-31T11:43:11.667Z,98977.34
2022-12-31T11:45:38.259Z,98975.75
2022-12-31T11:48:28.462Z,98970.47
2022-12-31T11:50:13.001Z,98983.28
2022-12-31T11:52:36.682Z,98982.22
2022-12-31T11:55:03.371Z,98975.59
2022-12-31T11:57:12.228Z,98991.88
2022-12-31T11:59:19.430Z,98994.06
2022-12-31T12:02:10.090Z,98976.41
2022-12-31T12:04:11.700Z,98982.09
2022-12-31T12:06:16.075Z,98969.28
2022-12-31T12:08:17.758Z,98966.31
2022-12-31T12:10:29.132Z,98973.88
2022-12-31T12:12:43.642Z,98986.31
2022-12-31T12:14:49.181Z,98980.97
2022-12-31T12:17:00.858Z,98977.00
2022-12-31T12:19:07.905Z,98994.34
2022-12-31T12:21:28.541Z,98963.41
2022-12-31T12:23:30.046Z,98991.50
2022-12-31T12:25:40.196Z,98984.03
2022-12-31T12:27:42.210Z,99000.06
2022-12-31T12:29:43.644Z,99003.25
2022-12-31T12:32:22.168Z,99000.66
2022-12-31T12:34:36.378Z,99008.97
2022-12-31T12:36:47.019Z,99012.69
2022-12-31T12:38:49.070Z,99006.31
2022-12-31T12:41:05.799Z,99002.34
2022-12-31T12:43:22.039Z,98978.22
2022-12-31T12:45:28.068Z,98999.59
2022-12-31T12:47:30.861Z,99009.78
2022-12-31T12:49:39.553Z,99003.72
2022-12-31T12:51:46.812Z,98986.97
2022-12-31T12:53:58.587Z,98989.19
2022-12-31T12:56:33.702Z,98992.72
2022-12-31T12:59:00.825Z,98996.47
2022-12-31T13:01:07.724Z,99001.84
2022-12-31T13:03:26.638Z,99013.31
2022-12-31T13:05:40.081Z,99007.97
2022-12-31T13:08:04.534Z,99015.47
2022-12-31T13:10:22.265Z,99017.09
2022-12-31T13:13:22.189Z,99021.88
2022-12-31T13:15:15.837Z,99011.19
2022-12-31T13:17:34.957Z,99022.41
2022-12-31T13:20:07.355Z,99018.75
2022-12-31T13:22:19.032Z,99017.16
2022-12-31T13:24:45.446Z,99014.22
2022-12-31T13:27:11.931Z,99029.69
2022-12-31T13:29:21.166Z,99036.34
2022-12-31T13:31:31.848Z,99042.47
2022-12-31T13:33:38.344Z,99043.03
2022-12-31T13:36:02.684Z,99048.91
2022-12-31T13:38:31.979Z,99045.69
2022-12-31T13:40:58.028Z,99023.31
2022-12-31T13:43:32.921Z,99031.34
2022-12-31T13:45:42.075Z,99018.03
2022-12-31T13:47:52.596Z,99031.88
2022-12-31T13:50:15.205Z,99047.31
2022-12-31T13:52:28.581Z,99038.00
2022-12-31T13:54:41.097Z,99043.06
2022-12-31T13:56:45.481Z,99045.47
2022-12-31T13:58:54.371Z,99024.97
2022-12-31T14:01:02.966Z,99038.00
2022-12-31T14:03:23.001Z,99033.75
2022-12-31T14:05:36.496Z,99035.31
2022-12-31T14:07:51.455Z,99040.09
2022-12-31T14:09:52.928Z,99025.72
2022-12-31T14:12:09.339Z,99022.25
2022-12-31T14:14:18.934Z,99028.38
2022-12-31T14:16:46.386Z,99034.25
2022-12-31T14:19:02.351Z,99028.94
2022-12-31T14:21:14.095Z,99030.00
2022-12-31T14:23:42.840Z,99048.13
2022-12-31T14:25:49.663Z,99023.88
2022-12-31T14:27:54.152Z,99028.94
2022-12-31T14:30:13.200Z,99025.19
2022-12-31T14:32:26.415Z,99027.84
2022-12-31T14:34:54.159Z,99042.50
2022-12-31T14:37:13.559Z,99047.88
2022-12-31T14:39:39.457Z,99043.06
2022-12-31T14:42:12.352Z,99045.47
2022-12-31T14:44:54.787Z,99048.41
2022-12-31T14:47:30.675Z,99055.88
2022-12-31T14:49:38.665Z,99067.03
2022-12-31T14:51:40.105Z,99053.50
2022-12-31T14:53:52.339Z,99050.81
2022-12-31T14:56:04.116Z,99055.34
2022-12-31T14:58:36.515Z,99059.31
2022-12-31T15:00:39.710Z,99060.16
2022-12-31T15:02:50.060Z,99063.84
2022-12-31T15:04:52.073Z,99046.28
2022-12-31T15:07:16.571Z,99059.63
2022-12-31T15:09:34.835Z,99066.53
2022-12-31T15:12:21.070Z,99065.72
2022-12-31T15:14:44.343Z,99063.06
2022-12-31T15:17:33.511Z,99068.09
2022-12-31T15:19:49.916Z,99060.91
2022-12-31T15:21:56.119Z,99050.00
2022-12-31T15:23:57.749Z,99050.53
2022-12-31T15:26:01.046Z,99062.53
2022-12-31T15:28:05.725Z,99042.28
2022-12-31T15:30:29.745Z,99051.84
2022-12-31T15:32:41.429Z,99056.38
2022-12-31T15:34:42.822Z,99052.41
2022-12-31T15:36:53.600Z,99050.00
2022-12-31T15:39:38.289Z,99072.84
2022-12-31T15:42:10.099Z,99067.28
2022-12-31T15:44:18.496Z,99072.06
2022-12-31T15:46:25.711Z,99067.00
2022-12-31T15:48:36.173Z,99069.66
2022-12-31T15:50:39.399Z,99073.38
2022-12-31T15:52:47.991Z,99073.94
2022-12-31T15:54:54.078Z,99074.75
2022-12-31T15:56:55.481Z,99078.44
2022-12-31T15:58:59.550Z,99077.88
2022-12-31T16:01:37.037Z,99074.69
2022-12-31T16:03:44.758Z,99072.34
2022-12-31T16:05:46.176Z,99069.13
2022-12-31T16:07:47.989Z,99075.00
2022-12-31T16:09:55.390Z,99079.22
2022-12-31T16:11:59.066Z,99093.34
2022-12-31T16:14:00.618Z,99077.66
2022-12-31T16:16:08.148Z,99083.78
2022-12-31T16:18:20.617Z,99086.72
2022-12-31T16:20:26.914Z,99086.72
2022-12-31T16:22:29.806Z,99086.19
2022-12-31T16:24:33.155Z,99075.28
2022-12-31T16:26:45.388Z,99066.19
2022-12-31T16:28:48.782Z,99071.78
2022-12-31T16:31:04.457Z,99070.72
2022-12-31T16:33:11.357Z,99073.13
2022-12-31T16:35:31.341Z,99072.84
2022-12-31T16:37:32.766Z,99067.78
2022-12-31T16:39:36.079Z,99075.25
2022-12-31T16:41:43.125Z,99076.84
2022-12-31T16:43:46.510Z,99078.47
2022-12-31T16:45:48.578Z,99061.16
2022-12-31T16:47:50.927Z,99060.34
2022-12-31T16:50:17.097Z,99061.94
2022-12-31T16:52:33.630Z,99067.53
2022-12-31T16:54:43.623Z,99070.72
2022-12-31T16:56:45.261Z,99068.28
2022-12-31T16:58:46.908Z,99062.69
2022-12-31T17:00:50.716Z,99064.25
2022-12-31T17:03:18.378Z,99060.03
2022-12-31T17:05:25.223Z,99060.56
2022-12-31T17:07:32.547Z,99057.63
2022-12-31T17:09:37.704Z,99044.34
2022-12-31T17:11:45.390Z,99052.56
2022-12-31T17:14:05.207Z,99067.53
2022-12-31T17:16:06.827Z,99066.94
2022-12-31T17:18:17.257Z,99064.53
2022-12-31T17:20:27.770Z,99055.47
2022-12-31T17:22:36.774Z,99068.25
2022-12-31T17:24:39.621Z,99052.31
2022-12-31T17:26:41.065Z,99052.56
2022-12-31T17:28:46.609Z,99056.78
2022-12-31T17:30:48.259Z,99057.88
2022-12-31T17:32:51.639Z,99056.50
2022-12-31T17:34:54.634Z,99048.84
2022-12-31T17:37:11.590Z,99054.44
2022-12-31T17:39:21.003Z,99049.88
2022-12-31T17:41:27.311Z,99051.78
2022-12-31T17:43:33.116Z,99035.56
2022-12-31T17:45:37.960Z,99032.34
2022-12-31T17:47:41.551Z,99032.09
2022-12-31T17:49:46.450Z,99010.81
2022-12-31T17:51:48.183Z,99023.84
2022-12-31T17:53:49.667Z,99014.88
2022-12-31T17:55:53.386Z,99015.59
2022-12-31T17:57:56.925Z,99019.06
2022-12-31T17:59:58.667Z,99020.63
2022-12-31T18:02:02.792Z,99021.19
2022-12-31T18:04:09.911Z,99027.31
2022-12-31T18:06:16.493Z,99034.19
2022-12-31T18:08:18.573Z,99029.22
2022-12-31T18:10:22.743Z,99041.41
2022-12-31T18:12:24.372Z,99038.19
2022-12-31T18:14:25.809Z,99042.47
2022-12-31T18:16:27.382Z,99031.28
2022-12-31T18:18:33.628Z,99030.22
2022-12-31T18:20:35.096Z,99036.88
2022-12-31T18:22:37.546Z,99024.91
2022-12-31T18:24:39.210Z,99032.88
2022-12-31T18:26:41.997Z,99038.19
2022-12-31T18:28:44.017Z,99027.28
2022-12-31T18:30:46.517Z,99029.69
2022-12-31T18:32:48.940Z,99031.28
2022-12-31T18:34:51.081Z,99036.06
2022-12-31T18:36:52.908Z,99023.28
2022-12-31T18:38:54.762Z,99008.69
2022-12-31T18:40:59.061Z,99020.63
2022-12-31T18:43:04.884Z,99001.22
2022-12-31T18:45:16.416Z,99003.88
2022-12-31T18:47:19.761Z,99015.34
2022-12-31T18:49:21.316Z,98993.22
2022-12-31T18:51:31.401Z,99015.03
2022-12-31T18:53:33.681Z,99015.59
2022-12-31T18:55:41.320Z,99006.78
2022-12-31T18:57:42.692Z,99009.97
2022-12-31T18:59:44.262Z,99004.91
2022-12-31T19:01:45.756Z,99005.44
2022-12-31T19:03:47.238Z,99017.69
2022-12-31T19:05:50.728Z,99022.72
2022-12-31T19:07:52.278Z,99016.88
2022-12-31T19:09:58.333Z,99016.91
2022-12-31T19:12:00.213Z,99008.94
2022-12-31T19:14:18.979Z,99011.31
2022-12-31T19:16:20.442Z,99010.53
2022-12-31T19:18:21.868Z,99015.84
2022-12-31T19:20:23.921Z,99002.25
2022-12-31T19:22:25.359Z,99015.31
2022-12-31T19:24:27.805Z,99017.44
2022-12-31T19:26:29.721Z,99020.91
2022-12-31T19:28:31.126Z,99009.47
2022-12-31T19:30:34.118Z,99026.72
2022-12-31T19:32:35.487Z,99022.72
2022-12-31T19:34:36.907Z,99021.97
2022-12-31T19:36:43.882Z,99037.13
2022-12-31T19:38:46.388Z,99013.16
2022-12-31T19:40:48.629Z,99020.09
2022-12-31T19:42:51.720Z,99035.50
2022-12-31T19:44:53.106Z,99041.09
2022-12-31T19:46:54.483Z,99017.44
2022-12-31T19:48:55.957Z,99047.75
2022-12-31T19:50:57.362Z,99022.19
2022-12-31T19:52:59.306Z,99056.22
2022-12-31T19:55:00.661Z,99048.25
2022-12-31T19:57:02.178Z,99057.31
2022-12-31T19:59:05.638Z,99049.63
2022-12-31T20:01:09.343Z,99049.34
2022-12-31T20:03:11.719Z,99055.44
2022-12-31T20:05:15.231Z,99046.38
2022-12-31T20:07:18.799Z,99064.47
2022-12-31T20:09:23.577Z,99064.69
2022-12-31T20:11:25.174Z,99068.13
2022-12-31T20:13:26.910Z,99083.28
2022-12-31T20:15:28.511Z,99073.78
2022-12-31T20:17:29.935Z,99080.94
2022-12-31T20:19:31.371Z,99086.50
2022-12-31T20:21:32.759Z,99078.53
2022-12-31T20:23:34.874Z,99084.34
2022-12-31T20:25:36.264Z,99085.69
2022-12-31T20:27:38.433Z,99087.03
2022-12-31T20:29:39.890Z,99094.47
2022-12-31T20:31:41.246Z,99093.38
2022-12-31T20:33:42.852Z,99091.25
2022-12-31T20:35:44.290Z,99082.72
2022-12-31T20:37:46.051Z,99101.31
2022-12-31T20:39:47.459Z,99098.44
2022-12-31T20:41:49.057Z,99092.28
2022-12-31T20:43:50.647Z,99112.22
2022-12-31T20:45:52.099Z,99113.03
2022-12-31T20:47:53.531Z,99109.66
2022-12-31T20:50:11.700Z,99116.53
2022-12-31T20:52:13.778Z,99114.97
2022-12-31T20:54:15.353Z,99123.75
2022-12-31T20:56:17.956Z,99113.88
2022-12-31T20:58:19.387Z,99121.34
2022-12-31T21:00:20.854Z,99128.78
2022-12-31T21:02:29.616Z,99112.88
2022-12-31T21:04:41.349Z,99128.78
2022-12-31T21:06:42.889Z,99133.28
2022-12-31T21:08:44.372Z,99123.16
2022-12-31T21:10:48.432Z,99128.47
2022-12-31T21:12:53.265Z,99132.94
2022-12-31T21:14:54.971Z,99122.38
2022-12-31T21:16:56.368Z,99131.44
2022-12-31T21:18:58.036Z,99126.59
2022-12-31T21:21:00.487Z,99149.25
2022-12-31T21:23:01.912Z,99137.81
2022-12-31T21:25:03.731Z,99145.28
2022-12-31T21:27:05.826Z,99147.94
2022-12-31T21:29:07.201Z,99148.25
2022-12-31T21:31:10.447Z,99145.78
2022-12-31T21:33:11.851Z,99150.88
2022-12-31T21:37:58.257Z,99157.78
2022-12-31T21:39:55.975Z,99152.47
2022-12-31T21:41:57.427Z,99151.38
2022-12-31T21:43:58.917Z,99158.88
2022-12-31T21:46:05.437Z,99177.97
2022-12-31T21:48:25.918Z,99181.69
2022-12-31T21:50:27.291Z,99169.97
2022-12-31T21:52:33.880Z,99176.06
2022-12-31T21:54:53.707Z,99169.50
2022-12-31T21:56:55.093Z,99172.44
2022-12-31T21:59:18.523Z,99186.50
2022-12-31T22:01:40.626Z,99167.41
2022-12-31T22:03:42.575Z,99175.94
2022-12-31T22:05:53.241Z,99187.09
2022-12-31T22:07:54.634Z,99167.91
2022-12-31T22:09:56.121Z,99173.75
2022-12-31T22:11:57.512Z,99170.56
2022-12-31T22:13:58.927Z,99166.31
2022-12-31T22:16:05.278Z,99171.06
2022-12-31T22:18:07.275Z,99169.78
2022-12-31T22:20:26.368Z,99181.47
2022-12-31T22:22:29.180Z,99177.72
2022-12-31T22:24:30.536Z,99176.66
2022-12-31T22:26:31.911Z,99174.53
2022-12-31T22:28:39.572Z,99183.06
2022-12-31T22:30:41.483Z,99171.72
2022-12-31T22:32:42.957Z,99185.25
2022-12-31T22:34:44.450Z,99189.78
2022-12-31T22:36:45.897Z,99194.81
2022-12-31T22:38:49.192Z,99187.63
2022-12-31T22:40:50.529Z,99205.97
2022-12-31T22:42:51.909Z,99197.94
2022-12-31T22:44:53.302Z,99209.72
2022-12-31T22:46:56.083Z,99209.69
2022-12-31T22:48:59.124Z,99216.63
2022-12-31T22:51:00.538Z,99204.16
2022-12-31T22:53:01.947Z,99196.94
2022-12-31T22:55:03.697Z,99202.03
2022-12-31T22:57:05.088Z,99208.66
2022-12-31T22:59:06.505Z,99204.13
2022-12-31T23:01:14.423Z,99216.69
2022-12-31T23:03:15.937Z,99211.97
2022-12-31T23:05:17.352Z,99215.16
2022-12-31T23:07:18.806Z,99219.47
2022-12-31T23:09:38.782Z,99219.19
2022-12-31T23:11:40.892Z,99222.03
2022-12-31T23:14:01.536Z,99220.47
2022-12-31T23:16:22.009Z,99221.25
2022-12-31T23:18:42.080Z,99219.66
2022-12-31T23:21:01.946Z,99218.06
2022-12-31T23:23:12.776Z,99219.88
2022-12-31T23:25:14.200Z,99212.50
2022-12-31T23:27:15.606Z,99201.84
2022-12-31T23:29:17.046Z,99205.59
2022-12-31T23:31:18.402Z,99202.16
2022-12-31T23:33:25.062Z,99201.38
2022-12-31T23:35:26.561Z,99192.06
2022-12-31T23:37:27.967Z,99198.97
2022-12-31T23:39:29.750Z,99195.00
2022-12-31T23:41:31.205Z,99197.91
2022-12-31T23:43:32.580Z,99191.53
2022-12-31T23:45:34.740Z,99189.41
2022-12-31T23:47:37.305Z,99191.53
2022-12-31T23:49:38.647Z,99212.31
2022-12-31T23:51:40.227Z,99200.34
2022-12-31T23:53:41.737Z,99197.97
2022-12-31T23:55:43.091Z,99196.63
2022-12-31T23:57:44.585Z,99201.16
2022-12-31T23:59:46.012Z,99199.50
